Time;durP1;ratioP1;P1;durP2;ratioP2;P2;SDS_P1;SDS_P2;PMS_P1;PMS_P2;Temp;Humidity;BMP_temperature;BMP_pressure;BME280_temperature;BME280_humidity;BME280_pressure;Samples;Min_cycle;Max_cycle;Signal;HPM_P1;HPM_P2
2022/10/13 00:01:31;;;;;;;7.63;2.80;;;7.80;99.90;;;;;;5020714;28;20227;-80
2022/10/13 00:03:58;;;;;;;6.33;2.80;;;7.80;99.90;;;;;;5003833;28;20220;-81
2022/10/13 00:06:26;;;;;;;4.87;2.60;;;7.80;99.90;;;;;;4993939;28;21012;-81
2022/10/13 00:08:55;;;;;;;10.93;2.77;;;7.80;99.90;;;;;;5002716;28;20220;-80
2022/10/13 00:11:24;;;;;;;6.97;3.30;;;7.80;99.90;;;;;;5005419;28;20281;-81
2022/10/13 00:13:55;;;;;;;9.63;3.40;;;7.80;99.90;;;;;;4998975;28;20632;-80
2022/10/13 00:16:22;;;;;;;7.63;2.90;;;7.80;99.90;;;;;;5004722;28;20222;-80
2022/10/13 00:18:50;;;;;;;7.40;2.63;;;7.90;99.90;;;;;;5004402;28;20237;-80
2022/10/13 00:21:19;;;;;;;5.47;2.87;;;7.90;99.90;;;;;;5004841;28;20243;-80
2022/10/13 00:23:50;;;;;;;9.97;3.20;;;7.90;99.90;;;;;;5004846;28;20226;-80
2022/10/13 00:26:20;;;;;;;6.40;3.00;;;7.90;99.90;;;;;;5023047;28;20226;-81
2022/10/13 00:28:48;;;;;;;10.03;3.20;;;7.80;99.90;;;;;;5009959;28;20240;-81
2022/10/13 00:31:18;;;;;;;8.03;3.57;;;7.80;99.90;;;;;;5002988;28;20327;-80
2022/10/13 00:33:45;;;;;;;11.60;3.50;;;7.90;99.90;;;;;;4999169;28;21032;-81
2022/10/13 00:36:13;;;;;;;6.27;3.10;;;7.80;99.90;;;;;;5005259;28;20233;-81
2022/10/13 00:38:39;;;;;;;6.43;3.50;;;7.80;99.90;;;;;;5004769;28;20634;-81
2022/10/13 00:41:07;;;;;;;5.77;2.90;;;7.80;99.90;;;;;;5020331;28;20257;-81
2022/10/13 00:43:52;;;;;;;8.90;3.07;;;7.80;99.90;;;;;;5001445;28;20235;-81
2022/10/13 00:46:23;;;;;;;7.40;3.53;;;7.70;99.90;;;;;;5002869;28;20309;-81
2022/10/13 00:48:58;;;;;;;5.17;2.60;;;7.70;99.90;;;;;;5002218;28;20651;-81
2022/10/13 00:51:29;;;;;;;6.00;3.00;;;7.70;99.90;;;;;;5008839;28;20269;-81
2022/10/13 00:53:57;;;;;;;6.67;3.10;;;7.70;99.90;;;;;;5002179;28;22459;-80
2022/10/13 00:56:25;;;;;;;6.93;2.90;;;7.70;99.90;;;;;;5010642;28;20292;-80
2022/10/13 00:58:53;;;;;;;5.07;3.07;;;7.70;99.90;;;;;;5007042;28;20345;-80
2022/10/13 01:01:21;;;;;;;6.43;3.30;;;7.60;99.90;;;;;;5009776;28;20215;-80
2022/10/13 01:03:48;;;;;;;4.93;3.53;;;7.60;99.90;;;;;;5003889;28;20251;-80
2022/10/13 01:06:16;;;;;;;8.43;3.27;;;7.60;99.90;;;;;;5001419;28;20241;-81
2022/10/13 01:08:43;;;;;;;6.27;3.00;;;7.60;99.90;;;;;;5006901;28;20337;-81
2022/10/13 01:11:38;;;;;;;10.43;3.83;;;7.60;99.90;;;;;;5005536;28;20700;-80
2022/10/13 01:14:14;;;;;;;7.80;2.97;;;7.70;99.90;;;;;;5001806;28;20293;-82
2022/10/13 01:16:49;;;;;;;6.93;3.50;;;7.70;99.90;;;;;;5017058;28;20441;-82
2022/10/13 01:19:37;;;;;;;9.97;3.47;;;7.60;99.90;;;;;;4995541;28;20218;-81
2022/10/13 01:22:18;;;;;;;6.73;3.47;;;7.60;99.90;;;;;;5004515;28;20246;-81
2022/10/13 01:24:47;;;;;;;8.73;3.37;;;7.60;99.90;;;;;;5001751;28;20222;-81
2022/10/13 01:27:45;;;;;;;6.03;3.07;;;7.60;99.90;;;;;;4999346;28;20295;-80
2022/10/13 01:30:17;;;;;;;5.90;3.30;;;7.60;99.90;;;;;;5002495;28;20222;-81
2022/10/13 01:32:58;;;;;;;11.57;3.80;;;7.60;99.90;;;;;;5000788;28;20703;-82
2022/10/13 01:35:33;;;;;;;9.50;3.60;;;7.50;99.90;;;;;;5009964;28;20950;-81
2022/10/13 01:38:07;;;;;;;7.97;3.90;;;7.60;99.90;;;;;;5006001;28;20228;-81
2022/10/13 01:40:41;;;;;;;10.00;4.07;;;7.40;99.90;;;;;;5006822;28;20227;-81
2022/10/13 01:43:11;;;;;;;8.57;4.00;;;7.40;99.90;;;;;;5007428;28;20235;-82
2022/10/13 01:45:46;;;;;;;8.93;4.03;;;7.40;99.90;;;;;;5019966;28;20236;-82
2022/10/13 01:48:15;;;;;;;11.20;4.20;;;7.30;99.90;;;;;;5001382;28;20213;-82
2022/10/13 01:50:43;;;;;;;8.47;4.07;;;7.20;99.90;;;;;;4999753;28;20246;-81
2022/10/13 01:53:12;;;;;;;7.17;3.57;;;7.20;99.90;;;;;;5004642;28;20235;-81
2022/10/13 01:55:48;;;;;;;11.63;3.63;;;7.10;99.90;;;;;;5006051;28;20777;-81
2022/10/13 01:58:15;;;;;;;8.87;3.50;;;7.00;99.90;;;;;;5003374;28;20225;-81
2022/10/13 02:01:01;;;;;;;6.97;3.20;;;7.00;99.90;;;;;;5005109;28;20244;-81
2022/10/13 02:03:39;;;;;;;7.43;3.77;;;6.90;99.90;;;;;;5015919;28;20314;-80
2022/10/13 02:06:15;;;;;;;8.77;3.67;;;6.80;99.90;;;;;;5007827;28;20248;-81
2022/10/13 02:08:53;;;;;;;10.00;3.37;;;6.80;99.90;;;;;;5006901;28;20688;-80
2022/10/13 02:11:22;;;;;;;8.53;3.67;;;6.70;99.90;;;;;;5008291;28;20222;-80
2022/10/13 02:13:54;;;;;;;7.17;3.50;;;6.60;99.90;;;;;;5003710;28;20229;-80
2022/10/13 02:16:24;;;;;;;8.40;4.00;;;6.60;99.90;;;;;;4994360;28;20970;-80
2022/10/13 02:18:52;;;;;;;12.27;3.87;;;6.50;99.90;;;;;;5009167;28;20418;-81
2022/10/13 02:21:19;;;;;;;5.87;3.63;;;6.40;99.90;;;;;;4995758;28;20222;-80
2022/10/13 02:23:46;;;;;;;7.17;4.10;;;6.40;99.90;;;;;;5008342;28;20240;-80
2022/10/13 02:26:14;;;;;;;9.50;4.20;;;6.30;99.90;;;;;;5001623;28;20745;-80
2022/10/13 02:28:41;;;;;;;11.87;3.97;;;6.30;99.90;;;;;;5009323;28;20228;-81
2022/10/13 02:31:09;;;;;;;6.57;3.80;;;6.20;99.90;;;;;;5003731;28;20214;-81
2022/10/13 02:33:37;;;;;;;8.70;3.87;;;6.30;99.90;;;;;;5009164;28;20304;-80
2022/10/13 02:36:04;;;;;;;7.80;4.10;;;6.20;99.90;;;;;;5004905;28;20279;-80
2022/10/13 02:38:31;;;;;;;16.20;4.27;;;6.20;99.90;;;;;;5003758;28;20811;-80
2022/10/13 02:40:57;;;;;;;7.03;3.53;;;6.20;99.90;;;;;;5003714;28;20279;-80
2022/10/13 02:43:24;;;;;;;6.07;4.10;;;6.20;99.90;;;;;;5002037;28;20252;-80
2022/10/13 02:45:51;;;;;;;7.70;4.63;;;6.20;99.90;;;;;;5007793;28;20597;-80
2022/10/13 02:48:17;;;;;;;7.67;4.30;;;6.20;99.90;;;;;;4997862;28;20348;-81
2022/10/13 02:50:46;;;;;;;10.07;4.23;;;6.20;99.90;;;;;;5011888;28;20228;-81
2022/10/13 02:53:12;;;;;;;10.93;4.43;;;6.20;99.90;;;;;;5009114;28;20687;-81
2022/10/13 02:55:39;;;;;;;10.70;4.50;;;6.10;99.90;;;;;;5009081;28;20248;-81
2022/10/13 02:58:06;;;;;;;7.93;4.50;;;6.10;99.90;;;;;;5003030;28;20621;-80
2022/10/13 03:00:32;;;;;;;7.57;4.03;;;6.10;99.90;;;;;;5006593;28;20234;-80
2022/10/13 03:02:59;;;;;;;10.80;4.43;;;6.10;99.90;;;;;;5002020;28;20235;-80
2022/10/13 03:05:26;;;;;;;11.27;5.00;;;6.10;99.90;;;;;;5010600;28;20319;-80
2022/10/13 03:07:54;;;;;;;7.37;4.67;;;6.10;99.90;;;;;;5009063;28;20229;-80
2022/10/13 03:10:21;;;;;;;10.73;4.53;;;6.10;99.90;;;;;;5011831;28;20259;-81
2022/10/13 03:12:49;;;;;;;9.00;5.03;;;6.10;99.90;;;;;;5006710;23;20307;-90
2022/10/13 03:15:16;;;;;;;9.43;4.37;;;6.10;99.90;;;;;;5006345;28;20325;-90
2022/10/13 03:17:43;;;;;;;7.50;4.73;;;6.10;99.90;;;;;;4985817;28;20284;-91
2022/10/13 03:20:10;;;;;;;14.57;5.50;;;6.20;99.90;;;;;;4989571;28;20239;-90
2022/10/13 03:22:37;;;;;;;9.83;4.47;;;6.20;99.90;;;;;;4994935;28;20379;-90
2022/10/13 03:25:06;;;;;;;12.93;4.50;;;6.30;99.90;;;;;;4988594;28;20673;-92
2022/10/13 03:27:33;;;;;;;9.87;4.03;;;6.20;99.90;;;;;;4983781;28;20236;-91
2022/10/13 03:30:00;;;;;;;7.03;4.80;;;6.30;99.90;;;;;;4985646;28;20284;-92
2022/10/13 03:32:26;;;;;;;9.47;4.80;;;6.30;99.90;;;;;;4988106;28;20706;-91
2022/10/13 03:34:53;;;;;;;9.50;5.07;;;6.30;99.90;;;;;;4985333;28;20229;-90
2022/10/13 03:37:20;;;;;;;13.60;4.40;;;6.30;99.90;;;;;;4993961;28;20224;-91
2022/10/13 03:39:47;;;;;;;10.47;5.17;;;6.30;99.90;;;;;;4984580;28;20230;-92
2022/10/13 03:42:15;;;;;;;11.97;4.80;;;6.30;99.90;;;;;;4988728;28;20325;-90
2022/10/13 03:44:41;;;;;;;9.57;4.73;;;6.40;99.90;;;;;;4984880;28;20233;-90
2022/10/13 03:47:08;;;;;;;10.50;4.67;;;6.40;99.90;;;;;;4986912;28;20315;-90
2022/10/13 03:49:35;;;;;;;12.00;4.97;;;6.30;99.90;;;;;;4987294;28;20229;-90
2022/10/13 03:52:01;;;;;;;9.60;4.73;;;6.40;99.90;;;;;;4986618;28;20319;-90
2022/10/13 03:54:28;;;;;;;9.47;5.00;;;6.30;99.90;;;;;;4986229;28;20792;-91
2022/10/13 03:56:57;;;;;;;10.43;4.80;;;6.30;99.90;;;;;;4989736;28;20249;-90
2022/10/13 03:59:26;;;;;;;11.37;5.20;;;6.30;99.90;;;;;;4981692;28;20344;-91
2022/10/13 04:01:53;;;;;;;11.40;5.57;;;6.40;99.90;;;;;;4971483;28;20884;-90
2022/10/13 04:04:19;;;;;;;13.80;5.13;;;6.30;99.90;;;;;;4996277;28;20275;-90
2022/10/13 04:06:48;;;;;;;8.50;5.10;;;6.30;99.90;;;;;;4983489;28;20230;-89
2022/10/13 04:09:15;;;;;;;11.67;5.10;;;6.30;99.90;;;;;;4979975;28;20218;-89
2022/10/13 04:11:42;;;;;;;10.93;5.27;;;6.30;99.90;;;;;;5003109;28;20297;-90
2022/10/13 04:14:08;;;;;;;11.13;5.63;;;6.30;99.90;;;;;;4988157;28;20250;-90
2022/10/13 04:16:38;;;;;;;10.77;5.00;;;6.30;99.90;;;;;;5004179;28;20328;-90
2022/10/13 04:19:06;;;;;;;9.20;4.43;;;6.30;99.90;;;;;;4997984;28;20317;-90
2022/10/13 04:21:35;;;;;;;13.83;4.63;;;6.30;99.90;;;;;;4985780;28;20240;-91
2022/10/13 04:24:02;;;;;;;13.77;4.80;;;6.40;99.90;;;;;;4983305;28;20229;-89
2022/10/13 04:26:32;;;;;;;12.23;4.73;;;6.40;99.90;;;;;;4999055;28;20241;-92
2022/10/13 04:29:07;;;;;;;11.00;4.63;;;6.40;99.90;;;;;;4984093;28;20257;-90
2022/10/13 04:31:35;;;;;;;10.07;5.83;;;6.40;99.90;;;;;;4977108;28;20230;-90
2022/10/13 04:34:04;;;;;;;10.13;5.33;;;6.40;99.90;;;;;;4983655;28;20243;-89
2022/10/13 04:36:30;;;;;;;12.93;5.30;;;6.50;99.90;;;;;;4987622;28;20726;-90
2022/10/13 04:38:57;;;;;;;12.37;5.33;;;6.50;99.90;;;;;;4981965;28;20222;-90
2022/10/13 04:41:24;;;;;;;12.73;5.93;;;6.50;99.90;;;;;;4998260;28;20275;-90
2022/10/13 04:43:52;;;;;;;11.00;5.50;;;6.50;99.90;;;;;;4982070;28;20667;-90
2022/10/13 04:46:21;;;;;;;11.50;5.23;;;6.50;99.90;;;;;;4982214;28;20374;-89
2022/10/13 04:48:48;;;;;;;8.90;5.00;;;6.50;99.90;;;;;;4986196;28;20236;-90
2022/10/13 04:51:18;;;;;;;16.10;5.60;;;6.50;99.90;;;;;;4988499;28;20248;-90
2022/10/13 04:53:45;;;;;;;8.50;5.57;;;6.50;99.90;;;;;;4972316;28;20225;-90
2022/10/13 04:56:14;;;;;;;9.70;5.20;;;6.50;99.90;;;;;;4990489;28;20367;-89
2022/10/13 04:58:42;;;;;;;9.50;4.77;;;6.50;99.90;;;;;;4997612;28;20737;-90
2022/10/13 05:01:13;;;;;;;8.00;4.67;;;6.50;99.90;;;;;;4982266;28;20308;-91
2022/10/13 05:03:41;;;;;;;10.17;5.67;;;6.50;99.90;;;;;;4980300;28;20237;-91
2022/10/13 05:06:13;;;;;;;11.17;5.67;;;6.50;99.90;;;;;;4983172;28;20244;-90
2022/10/13 05:08:42;;;;;;;6.87;5.10;;;6.50;99.90;;;;;;4981150;28;20233;-91
2022/10/13 05:11:10;;;;;;;9.30;5.07;;;6.40;99.90;;;;;;4976915;28;20304;-91
2022/10/13 05:13:37;;;;;;;6.43;4.90;;;6.40;99.90;;;;;;4985809;28;20247;-91
2022/10/13 05:16:11;;;;;;;9.47;5.60;;;6.40;99.90;;;;;;5006015;28;20671;-93
2022/10/13 05:18:38;;;;;;;9.30;5.20;;;6.40;99.90;;;;;;4976754;28;20752;-91
2022/10/13 05:21:09;;;;;;;10.13;5.73;;;6.30;99.90;;;;;;4984154;28;20234;-93
2022/10/13 05:23:38;;;;;;;14.20;6.13;;;6.40;99.90;;;;;;4978299;28;20324;-94
2022/10/13 05:26:10;;;;;;;10.57;5.33;;;6.30;99.90;;;;;;4982918;28;20250;-92
2022/10/13 05:28:37;;;;;;;10.90;5.67;;;6.30;99.90;;;;;;4980161;28;20605;-91
2022/10/13 05:31:11;;;;;;;9.20;5.60;;;6.30;99.90;;;;;;4984447;28;20218;-91
2022/10/13 05:33:38;;;;;;;11.13;5.33;;;6.30;99.90;;;;;;4982765;28;20233;-91
2022/10/13 05:36:10;;;;;;;11.80;6.37;;;6.30;99.90;;;;;;4981425;28;20316;-91
2022/10/13 05:38:39;;;;;;;7.00;5.27;;;6.30;99.90;;;;;;4994170;28;20765;-92
2022/10/13 05:41:10;;;;;;;9.17;5.43;;;6.30;99.90;;;;;;4981986;28;20284;-91
2022/10/13 05:43:38;;;;;;;11.90;5.53;;;6.30;99.90;;;;;;4985473;28;20279;-91
2022/10/13 05:46:06;;;;;;;12.63;6.93;;;6.30;99.90;;;;;;4977109;28;20327;-91
2022/10/13 05:48:36;;;;;;;8.37;5.67;;;6.30;99.90;;;;;;4984332;28;20246;-91
2022/10/13 05:51:06;;;;;;;9.47;5.33;;;6.30;99.90;;;;;;4992672;28;20292;-93
2022/10/13 05:53:37;;;;;;;15.20;7.30;;;6.30;99.90;;;;;;4979298;28;20259;-91
2022/10/13 05:56:08;;;;;;;32.13;16.90;;;6.40;99.90;;;;;;4974300;28;20229;-91
2022/10/13 05:58:40;;;;;;;11.03;7.03;;;6.40;99.90;;;;;;4982892;28;20245;-92
2022/10/13 06:01:10;;;;;;;13.40;7.20;;;6.50;99.90;;;;;;4981674;28;20229;-92
2022/10/13 06:03:38;;;;;;;11.13;6.60;;;6.50;99.90;;;;;;4972810;28;20218;-91
2022/10/13 06:06:06;;;;;;;10.30;7.03;;;6.50;99.90;;;;;;4984244;28;20749;-87
2022/10/13 06:08:36;;;;;;;11.47;6.77;;;6.50;99.90;;;;;;4976543;28;20284;-91
2022/10/13 06:11:05;;;;;;;13.27;5.90;;;6.60;99.90;;;;;;4985653;28;20226;-90
2022/10/13 06:13:32;;;;;;;9.93;5.80;;;6.60;99.90;;;;;;4986863;28;20304;-89
2022/10/13 06:16:02;;;;;;;13.47;6.57;;;6.60;99.90;;;;;;4984949;28;20301;-89
2022/10/13 06:18:29;;;;;;;11.67;6.10;;;6.70;99.90;;;;;;4983410;28;20679;-90
2022/10/13 06:20:56;;;;;;;10.73;6.60;;;6.70;99.90;;;;;;4973198;28;20315;-88
2022/10/13 06:23:23;;;;;;;11.33;6.40;;;6.70;99.90;;;;;;4991509;28;20349;-90
2022/10/13 06:25:50;;;;;;;15.97;7.27;;;6.70;99.90;;;;;;4994104;28;20254;-89
2022/10/13 06:28:17;;;;;;;13.20;6.43;;;6.80;99.90;;;;;;4974033;28;20226;-90
2022/10/13 06:30:46;;;;;;;16.20;7.07;;;6.80;99.90;;;;;;4981572;28;20222;-89
2022/10/13 06:33:15;;;;;;;10.33;6.97;;;6.90;99.90;;;;;;4993720;28;20448;-89
2022/10/13 06:35:41;;;;;;;10.43;6.50;;;6.90;99.90;;;;;;4987372;28;20226;-87
2022/10/13 06:38:13;;;;;;;8.70;6.27;;;7.00;99.90;;;;;;4980265;28;20254;-91
2022/10/13 06:40:42;;;;;;;12.13;6.87;;;7.00;99.90;;;;;;4984771;28;20281;-92
2022/10/13 06:43:10;;;;;;;9.77;6.50;;;7.10;99.90;;;;;;4980899;28;20218;-91
2022/10/13 06:45:41;;;;;;;12.03;6.57;;;7.10;99.90;;;;;;4976978;28;20234;-91
2022/10/13 06:48:07;;;;;;;10.17;6.30;;;7.20;99.90;;;;;;4978219;28;20303;-92
2022/10/13 06:50:37;;;;;;;11.30;6.23;;;7.20;99.90;;;;;;4988194;28;20308;-91
2022/10/13 06:53:04;;;;;;;8.77;5.63;;;7.30;99.90;;;;;;4979820;28;20235;-92
2022/10/13 06:55:34;;;;;;;15.77;7.80;;;7.30;99.90;;;;;;4980175;28;20291;-91
2022/10/13 06:58:00;;;;;;;17.33;7.90;;;7.40;99.90;;;;;;4995881;28;20227;-90
2022/10/13 07:00:27;;;;;;;14.70;7.03;;;7.40;99.90;;;;;;4988303;28;20691;-92
2022/10/13 07:02:54;;;;;;;14.70;6.53;;;7.40;99.90;;;;;;4995042;28;20704;-92
2022/10/13 07:05:21;;;;;;;13.33;7.27;;;7.40;99.90;;;;;;4982402;28;20218;-87
2022/10/13 07:07:51;;;;;;;9.43;6.53;;;7.50;99.90;;;;;;4983743;28;20223;-89
2022/10/13 07:10:18;;;;;;;11.83;7.77;;;7.60;99.90;;;;;;4992394;28;20676;-88
2022/10/13 07:12:45;;;;;;;13.53;7.80;;;7.60;99.90;;;;;;4981561;28;20613;-88
2022/10/13 07:15:12;;;;;;;12.67;7.87;;;7.70;99.90;;;;;;4985501;28;20294;-92
2022/10/13 07:17:38;;;;;;;10.37;7.40;;;7.70;99.90;;;;;;4991569;28;20289;-91
2022/10/13 07:20:07;;;;;;;13.47;7.10;;;7.80;99.90;;;;;;4985884;28;20229;-90
2022/10/13 07:22:33;;;;;;;14.10;7.20;;;7.90;99.90;;;;;;4986955;28;20719;-91
2022/10/13 07:25:01;;;;;;;11.90;7.10;;;8.00;99.90;;;;;;4982909;28;20488;-89
2022/10/13 07:27:28;;;;;;;13.17;7.33;;;8.10;99.90;;;;;;4989894;28;20279;-90
2022/10/13 07:29:55;;;;;;;13.17;7.93;;;8.20;99.90;;;;;;4999248;28;20252;-90
2022/10/13 07:32:22;;;;;;;14.90;7.40;;;8.30;99.90;;;;;;4986644;28;20315;-90
2022/10/13 07:34:52;;;;;;;16.67;8.07;;;8.30;99.90;;;;;;4984533;28;20237;-90
2022/10/13 07:37:19;;;;;;;13.43;7.43;;;8.40;99.90;;;;;;4986461;28;20300;-90
2022/10/13 07:39:46;;;;;;;17.07;8.13;;;8.40;99.90;;;;;;4981738;28;20232;-87
2022/10/13 07:42:14;;;;;;;18.87;8.53;;;8.50;99.90;;;;;;4977278;28;20854;-86
2022/10/13 07:44:41;;;;;;;10.90;7.57;;;8.50;99.90;;;;;;4976233;28;20228;-85
2022/10/13 07:47:08;;;;;;;11.73;7.60;;;8.50;99.90;;;;;;4975390;28;20391;-93
2022/10/13 07:49:34;;;;;;;14.50;8.67;;;8.60;99.90;;;;;;4984125;28;20233;-89
2022/10/13 07:52:04;;;;;;;14.90;7.70;;;8.70;99.90;;;;;;4987264;28;20374;-88
2022/10/13 07:54:31;;;;;;;13.20;7.30;;;8.70;99.90;;;;;;4987262;28;20728;-85
2022/10/13 07:56:57;;;;;;;13.97;8.30;;;8.80;99.90;;;;;;4984393;28;20248;-85
2022/10/13 07:59:25;;;;;;;18.60;8.27;;;8.90;99.90;;;;;;4982205;28;20747;-85
2022/10/13 08:01:52;;;;;;;13.20;8.27;;;8.90;99.90;;;;;;4992164;28;20226;-84
2022/10/13 08:04:19;;;;;;;14.37;8.67;;;9.00;99.90;;;;;;4986368;28;20229;-86
2022/10/13 08:06:46;;;;;;;14.00;8.13;;;9.10;99.90;;;;;;4979834;28;20243;-86
2022/10/13 08:09:13;;;;;;;13.70;8.20;;;9.20;99.90;;;;;;4982155;28;20225;-86
2022/10/13 08:11:39;;;;;;;14.93;9.23;;;9.20;99.90;;;;;;4982079;28;20234;-86
2022/10/13 08:14:06;;;;;;;13.90;8.50;;;9.30;99.90;;;;;;4976722;28;20225;-86
2022/10/13 08:16:34;;;;;;;12.87;8.47;;;9.30;99.90;;;;;;4982161;28;20256;-85
2022/10/13 08:19:01;;;;;;;18.23;9.17;;;9.40;99.90;;;;;;4979353;28;20253;-85
2022/10/13 08:21:29;;;;;;;11.47;7.63;;;9.40;99.90;;;;;;4982192;28;21306;-86
2022/10/13 08:23:56;;;;;;;11.90;8.30;;;9.50;99.90;;;;;;4978740;28;20221;-86
2022/10/13 08:26:25;;;;;;;12.00;7.90;;;9.50;99.90;;;;;;4977602;28;20233;-84
2022/10/13 08:28:52;;;;;;;13.83;8.50;;;9.60;99.90;;;;;;4977910;28;20224;-85
2022/10/13 08:31:19;;;;;;;16.33;8.80;;;9.60;99.90;;;;;;4976540;28;20219;-86
2022/10/13 08:33:48;;;;;;;14.70;8.87;;;9.70;99.90;;;;;;4978055;28;20225;-86
2022/10/13 08:36:16;;;;;;;14.03;8.90;;;9.70;99.90;;;;;;4995946;28;20233;-84
2022/10/13 08:38:43;;;;;;;12.37;8.47;;;9.80;99.90;;;;;;4977520;28;20781;-86
2022/10/13 08:41:16;;;;;;;13.40;9.47;;;9.90;99.90;;;;;;4976213;28;20347;-86
2022/10/13 08:43:47;;;;;;;18.33;8.73;;;10.10;99.90;;;;;;4981900;28;20225;-86
2022/10/13 08:46:21;;;;;;;16.20;9.67;;;10.20;99.90;;;;;;4981189;28;21080;-84
2022/10/13 08:48:49;;;;;;;15.13;9.30;;;10.30;99.90;;;;;;4990755;28;20224;-86
2022/10/13 08:51:16;;;;;;;14.37;8.53;;;10.30;99.90;;;;;;4977518;28;20228;-85
2022/10/13 08:53:45;;;;;;;15.07;9.17;;;10.40;99.90;;;;;;4997305;28;20283;-87
2022/10/13 08:56:18;;;;;;;13.87;8.13;;;10.50;99.90;;;;;;4979818;28;20245;-85
2022/10/13 08:58:48;;;;;;;14.97;9.17;;;10.50;99.90;;;;;;4977985;28;20226;-86
2022/10/13 09:01:18;;;;;;;17.43;9.80;;;10.50;99.90;;;;;;4981196;28;20677;-85
2022/10/13 09:03:52;;;;;;;12.60;8.83;;;10.60;99.90;;;;;;4985131;28;20356;-85
2022/10/13 09:06:26;;;;;;;15.50;9.20;;;10.60;99.90;;;;;;4970828;28;20264;-86
2022/10/13 09:08:56;;;;;;;13.13;8.60;;;10.80;99.90;;;;;;4971013;28;20227;-86
2022/10/13 09:11:25;;;;;;;15.53;9.50;;;10.80;99.90;;;;;;4978875;28;20310;-84
2022/10/13 09:13:55;;;;;;;15.87;9.83;;;10.90;99.90;;;;;;4984757;28;20297;-89
2022/10/13 09:16:28;;;;;;;19.17;9.53;;;11.00;99.90;;;;;;4983691;28;20276;-89
2022/10/13 09:19:21;;;;;;;14.40;9.33;;;11.00;99.90;;;;;;4982566;28;20315;-90
2022/10/13 09:21:48;;;;;;;17.90;9.27;;;11.10;99.90;;;;;;4996163;28;20226;-88
2022/10/13 09:24:17;;;;;;;17.70;10.07;;;11.20;99.90;;;;;;4980733;28;20228;-88
2022/10/13 09:26:46;;;;;;;18.87;11.17;;;11.20;99.90;;;;;;4994430;28;20235;-88
2022/10/13 09:29:18;;;;;;;16.00;10.73;;;11.30;99.90;;;;;;4982995;28;20226;-89
2022/10/13 09:31:45;;;;;;;14.60;10.27;;;11.30;99.90;;;;;;4988391;28;20228;-89
2022/10/13 09:34:22;;;;;;;15.63;9.70;;;11.40;99.90;;;;;;4984438;28;20221;-88
2022/10/13 09:36:56;;;;;;;16.90;10.60;;;11.50;99.90;;;;;;4986288;28;20689;-90
2022/10/13 09:39:23;;;;;;;17.63;10.57;;;11.70;99.90;;;;;;4984586;28;20300;-89
2022/10/13 09:41:50;;;;;;;17.63;10.10;;;11.80;99.90;;;;;;4984572;28;20226;-89
2022/10/13 09:44:19;;;;;;;15.80;10.00;;;12.00;99.90;;;;;;4982696;28;20222;-89
2022/10/13 09:46:49;;;;;;;18.47;11.27;;;12.20;99.90;;;;;;4982699;28;20294;-89
2022/10/13 09:49:31;;;;;;;14.33;10.03;;;12.30;99.90;;;;;;4983011;28;20720;-89
2022/10/13 09:52:01;;;;;;;18.10;10.47;;;12.50;99.90;;;;;;5000294;28;20213;-90
2022/10/13 09:54:38;;;;;;;15.67;10.07;;;12.60;99.90;;;;;;4977781;28;20307;-89
2022/10/13 09:57:11;;;;;;;16.40;10.00;;;12.70;99.90;;;;;;4983082;28;20233;-90
2022/10/13 09:59:43;;;;;;;17.27;10.13;;;12.90;99.90;;;;;;4983559;28;20226;-90
2022/10/13 10:02:20;;;;;;;20.27;10.17;;;13.00;99.90;;;;;;4985214;28;20229;-89
2022/10/13 10:04:52;;;;;;;13.47;9.77;;;13.30;99.90;;;;;;4982280;28;20274;-89
2022/10/13 10:07:25;;;;;;;14.30;9.70;;;13.60;99.90;;;;;;4987560;28;20238;-89
2022/10/13 10:09:54;;;;;;;15.27;9.67;;;13.90;99.90;;;;;;4986684;28;20255;-89
2022/10/13 10:12:25;;;;;;;11.97;8.53;;;14.20;99.90;;;;;;4981104;28;20234;-90
2022/10/13 10:14:55;;;;;;;17.23;10.77;;;14.50;99.90;;;;;;4982993;28;20781;-89
2022/10/13 10:17:30;;;;;;;14.83;9.37;;;14.60;99.90;;;;;;4990736;28;20229;-91
2022/10/13 10:20:12;;;;;;;14.53;9.97;;;14.70;99.90;;;;;;4997901;28;20228;-89
2022/10/13 10:22:47;;;;;;;19.97;10.30;;;14.90;99.90;;;;;;4984582;28;20221;-89
2022/10/13 10:25:28;;;;;;;15.53;9.60;;;14.90;99.90;;;;;;4982304;28;20967;-90
2022/10/13 10:28:15;;;;;;;16.40;10.40;;;15.00;99.90;;;;;;4982303;28;20232;-89
2022/10/13 10:30:48;;;;;;;17.50;9.97;;;14.90;99.90;;;;;;5001406;28;20234;-89
2022/10/13 10:33:20;;;;;;;14.93;9.53;;;14.90;99.90;;;;;;4993216;28;20227;-90
2022/10/13 10:35:54;;;;;;;16.80;10.07;;;14.80;99.90;;;;;;4979858;28;20245;-85
2022/10/13 10:38:33;;;;;;;14.30;9.40;;;14.70;99.90;;;;;;4972819;28;20220;-87
2022/10/13 10:41:06;;;;;;;12.87;9.27;;;14.60;99.90;;;;;;4985820;28;20600;-85
2022/10/13 10:43:41;;;;;;;16.70;9.60;;;14.50;99.90;;;;;;4975030;28;20812;-91
2022/10/13 10:46:16;;;;;;;16.03;9.83;;;14.40;99.90;;;;;;4981885;28;20227;-90
2022/10/13 10:48:46;;;;;;;15.93;10.17;;;14.30;99.90;;;;;;4974683;28;20315;-91
2022/10/13 10:51:16;;;;;;;17.07;10.90;;;14.30;99.90;;;;;;4988352;28;20222;-90
2022/10/13 10:53:52;;;;;;;16.40;10.40;;;14.10;99.90;;;;;;4984395;28;20795;-90
2022/10/13 10:56:27;;;;;;;15.63;9.97;;;14.00;99.90;;;;;;4994602;28;20333;-88
2022/10/13 10:59:07;;;;;;;14.53;10.10;;;13.90;99.90;;;;;;4987025;28;20222;-90
2022/10/13 11:01:40;;;;;;;16.27;10.33;;;13.90;99.90;;;;;;4978273;28;21157;-89
2022/10/13 11:04:34;;;;;;;12.57;9.60;;;13.90;99.90;;;;;;4994969;28;20312;-90
2022/10/13 11:07:13;;;;;;;15.43;9.80;;;13.90;99.90;;;;;;4952684;28;20606;-92
2022/10/13 11:10:15;;;;;;;15.17;10.30;;;13.90;99.90;;;;;;4983589;28;20724;-92
2022/10/13 11:13:08;;;;;;;15.47;9.47;;;13.90;99.90;;;;;;4982284;28;20420;-93
2022/10/13 11:15:43;;;;;;;15.93;9.67;;;13.90;99.90;;;;;;4980507;28;20234;-93
2022/10/13 11:18:47;;;;;;;12.53;8.97;;;13.90;99.90;;;;;;4977913;28;20223;-93
2022/10/13 11:21:14;;;;;;;14.77;10.07;;;14.00;99.90;;;;;;4973961;28;20230;-94
2022/10/13 11:23:47;;;;;;;16.70;10.43;;;14.10;99.90;;;;;;4987934;28;20261;-93
2022/10/13 11:26:40;;;;;;;15.70;10.33;;;14.10;99.90;;;;;;4981032;28;20218;-92
2022/10/13 11:29:18;;;;;;;15.50;10.47;;;14.20;99.90;;;;;;4989021;28;20229;-93
2022/10/13 11:31:53;;;;;;;15.33;9.40;;;14.30;99.90;;;;;;4983913;28;20241;-95
2022/10/13 11:34:29;;;;;;;13.73;10.00;;;14.30;99.90;;;;;;4990794;28;20249;-93
2022/10/13 11:37:01;;;;;;;15.90;10.63;;;14.40;99.90;;;;;;4983265;28;21197;-93
2022/10/13 11:39:58;;;;;;;14.17;9.87;;;14.50;99.90;;;;;;5005544;28;20316;-91
2022/10/13 11:42:53;;;;;;;17.10;9.40;;;14.60;99.90;;;;;;4993188;28;20798;-96
2022/10/13 11:45:47;;;;;;;17.60;10.10;;;14.70;99.90;;;;;;4994779;28;20342;-94
2022/10/13 11:48:47;;;;;;;14.40;10.37;;;14.80;99.90;;;;;;4991734;28;20224;-95
2022/10/13 11:51:39;;;;;;;15.93;9.83;;;14.90;99.90;;;;;;4991858;28;20260;-93
2022/10/13 11:54:21;;;;;;;14.20;9.27;;;14.90;99.90;;;;;;5005829;28;20231;-94
2022/10/13 11:57:05;;;;;;;13.33;9.70;;;15.00;99.90;;;;;;4995594;28;20237;-95
2022/10/13 11:59:39;;;;;;;12.97;9.10;;;15.10;99.90;;;;;;4994967;28;20224;-96
2022/10/13 12:02:12;;;;;;;12.17;8.83;;;15.30;99.90;;;;;;5003610;28;20218;-94
2022/10/13 12:04:40;;;;;;;14.70;9.33;;;15.50;99.90;;;;;;5014296;28;20233;-94
2022/10/13 12:07:10;;;;;;;15.40;9.10;;;15.70;99.90;;;;;;4991242;28;20776;-94
2022/10/13 12:09:51;;;;;;;13.80;9.13;;;16.00;99.90;;;;;;4991471;28;20305;-93
2022/10/13 12:12:22;;;;;;;14.73;9.27;;;16.20;99.90;;;;;;4991669;28;20229;-94
2022/10/13 12:14:52;;;;;;;13.27;9.17;;;16.30;99.90;;;;;;4986785;28;20236;-93
2022/10/13 12:17:23;;;;;;;12.90;8.83;;;16.40;99.90;;;;;;4998023;28;20375;-94
2022/10/13 12:19:50;;;;;;;10.73;8.73;;;16.50;99.90;;;;;;4977935;28;20321;-93
2022/10/13 12:22:17;;;;;;;13.53;8.27;;;16.50;99.90;;;;;;4985061;28;20670;-94
2022/10/13 12:25:04;;;;;;;12.80;7.93;;;16.50;99.90;;;;;;4985333;28;20228;-94
2022/10/13 12:27:42;;;;;;;14.17;8.37;;;16.50;99.90;;;;;;4998523;28;20324;-95
2022/10/13 12:30:29;;;;;;;14.43;8.70;;;16.50;99.90;;;;;;5010727;28;20258;-96
2022/10/13 12:33:00;;;;;;;11.50;8.23;;;16.60;99.90;;;;;;4997725;28;20224;-95
2022/10/13 12:35:30;;;;;;;11.93;8.60;;;16.60;99.90;;;;;;4978669;23;20243;-83
2022/10/13 12:38:00;;;;;;;15.10;8.77;;;16.60;99.90;;;;;;4993333;28;21182;-83
2022/10/13 12:40:28;;;;;;;16.57;8.40;;;16.60;99.90;;;;;;4980437;28;20312;-82
2022/10/13 12:42:57;;;;;;;11.83;7.27;;;16.60;99.90;;;;;;4981582;28;20227;-81
2022/10/13 12:45:31;;;;;;;13.27;7.70;;;16.60;99.90;;;;;;4981086;28;21203;-85
2022/10/13 12:47:58;;;;;;;11.67;6.60;;;16.50;99.90;;;;;;4994369;28;20234;-84
2022/10/13 12:50:38;;;;;;;13.83;8.17;;;16.60;99.90;;;;;;4977886;28;20233;-82
2022/10/13 12:53:24;;;;;;;12.63;8.30;;;16.50;99.90;;;;;;4978547;28;20295;-82
2022/10/13 12:55:57;;;;;;;15.43;8.73;;;16.60;99.90;;;;;;4977067;28;20243;-82
2022/10/13 12:58:29;;;;;;;13.67;7.93;;;16.70;99.90;;;;;;4979301;28;20340;-83
2022/10/13 13:01:00;;;;;;;13.73;7.70;;;16.70;99.90;;;;;;4975444;28;20232;-82
2022/10/13 13:03:36;;;;;;;9.00;6.73;;;16.70;99.90;;;;;;4970098;28;20913;-82
2022/10/13 13:06:22;;;;;;;10.00;7.07;;;16.80;99.90;;;;;;4940442;28;20229;-82